createdAt,value
2023-05-15T00:00:51.854Z,85.25
2023-05-15T00:03:29.563Z,85.83
2023-05-15T00:05:57.201Z,86.15
2023-05-15T00:08:24.651Z,86.58
2023-05-15T00:11:00.884Z,86.67
2023-05-15T00:13:29.988Z,86.59
2023-05-15T00:15:57.598Z,86.46
2023-05-15T00:18:25.268Z,86.46
2023-05-15T00:20:53.473Z,86.51
2023-05-15T00:23:21.088Z,86.64
2023-05-15T00:25:48.616Z,87.03
2023-05-15T00:28:16.063Z,86.99
2023-05-15T00:30:43.583Z,87.44
2023-05-15T00:33:11.077Z,87.39
2023-05-15T00:35:38.562Z,87.55
2023-05-15T00:38:06.104Z,87.37
2023-05-15T00:40:33.598Z,87.38
2023-05-15T00:43:01.207Z,87.63
2023-05-15T00:45:28.775Z,87.77
2023-05-15T00:47:56.310Z,87.91
2023-05-15T00:50:24.390Z,87.88
2023-05-15T00:52:51.916Z,87.79
2023-05-15T00:55:19.610Z,87.73
2023-05-15T00:57:47.247Z,87.80
2023-05-15T01:00:16.897Z,87.66
2023-05-15T01:02:44.484Z,87.48
2023-05-15T01:05:12.294Z,87.28
2023-05-15T01:07:39.802Z,87.05
2023-05-15T01:10:07.267Z,86.83
2023-05-15T01:12:34.794Z,86.68
2023-05-15T01:15:02.296Z,86.49
2023-05-15T01:17:29.841Z,86.37
2023-05-15T01:19:57.492Z,86.30
2023-05-15T01:22:25.249Z,86.28
2023-05-15T01:24:52.718Z,86.19
2023-05-15T01:27:20.588Z,86.07
2023-05-15T01:29:48.058Z,85.98
2023-05-15T01:32:17.191Z,86.04
2023-05-15T01:34:46.188Z,86.00
2023-05-15T01:37:13.679Z,85.98
2023-05-15T01:39:41.175Z,85.90
2023-05-15T01:42:08.672Z,85.89
2023-05-15T01:44:36.179Z,85.91
2023-05-15T01:47:03.732Z,86.23
2023-05-15T01:49:31.592Z,86.59
2023-05-15T01:51:59.176Z,86.58
2023-05-15T01:54:26.667Z,86.71
2023-05-15T01:56:54.161Z,86.82
2023-05-15T01:59:21.845Z,86.86
2023-05-15T02:01:49.386Z,86.99
2023-05-15T02:04:16.967Z,87.01
2023-05-15T02:06:44.871Z,86.89
2023-05-15T02:09:12.542Z,86.79
2023-05-15T02:11:40.024Z,86.68
2023-05-15T02:14:07.512Z,86.48
2023-05-15T02:16:35.266Z,86.38
2023-05-15T02:19:02.760Z,86.36
2023-05-15T02:21:30.763Z,86.44
2023-05-15T02:23:58.243Z,86.38
2023-05-15T02:26:25.987Z,86.31
2023-05-15T02:28:53.458Z,86.22
2023-05-15T02:31:22.286Z,86.04
2023-05-15T02:33:51.790Z,86.03
2023-05-15T02:36:19.382Z,86.08
2023-05-15T02:38:46.830Z,86.09
2023-05-15T02:41:14.296Z,86.19
2023-05-15T02:43:41.819Z,86.33
2023-05-15T02:46:09.338Z,86.48
2023-05-15T02:48:36.822Z,86.60
2023-05-15T02:51:04.302Z,86.77
2023-05-15T02:53:31.847Z,86.93
2023-05-15T02:55:59.347Z,87.02
2023-05-15T02:58:26.810Z,86.83
2023-05-15T03:00:54.472Z,86.71
2023-05-15T03:03:21.956Z,86.63
2023-05-15T03:05:49.771Z,86.66
2023-05-15T03:08:17.247Z,86.78
2023-05-15T03:10:44.743Z,86.60
2023-05-15T03:13:12.278Z,86.36
2023-05-15T03:15:39.769Z,86.26
2023-05-15T03:18:07.522Z,86.18
2023-05-15T03:20:35.096Z,86.02
2023-05-15T03:23:02.572Z,85.96
2023-05-15T03:25:30.092Z,85.94
2023-05-15T03:27:57.681Z,85.96
2023-05-15T03:30:25.146Z,86.06
2023-05-15T03:32:52.693Z,86.10
2023-05-15T03:35:20.260Z,86.15
2023-05-15T03:37:47.826Z,86.32
2023-05-15T03:40:15.339Z,86.38
2023-05-15T03:42:42.855Z,86.40
2023-05-15T03:45:10.362Z,86.43
2023-05-15T03:47:37.864Z,86.77
2023-05-15T03:50:05.467Z,86.89
2023-05-15T03:52:33.007Z,87.01
2023-05-15T03:55:00.851Z,87.15
2023-05-15T03:57:28.631Z,87.17
2023-05-15T03:59:56.151Z,87.14
2023-05-15T04:02:23.778Z,87.14
2023-05-15T04:04:51.703Z,86.98
2023-05-15T04:07:19.270Z,86.92
2023-05-15T04:09:46.773Z,86.78
2023-05-15T04:12:14.259Z,86.71
2023-05-15T04:14:41.717Z,86.77
2023-05-15T04:17:09.182Z,86.80
2023-05-15T04:19:36.692Z,86.94
2023-05-15T04:22:04.167Z,86.99
2023-05-15T04:24:31.635Z,87.26
2023-05-15T04:26:59.215Z,87.48
2023-05-15T04:29:26.731Z,87.55
2023-05-15T04:31:54.268Z,87.54
2023-05-15T04:34:21.824Z,87.50
2023-05-15T04:36:49.357Z,87.49
2023-05-15T04:39:16.799Z,87.40
2023-05-15T04:41:44.323Z,87.38
2023-05-15T04:44:11.924Z,87.34
2023-05-15T04:46:39.731Z,87.56
2023-05-15T04:49:07.395Z,87.91
2023-05-15T04:51:35.150Z,87.92
2023-05-15T04:54:02.722Z,87.97
2023-05-15T04:56:30.694Z,88.00
2023-05-15T04:58:58.161Z,87.89
2023-05-15T05:01:26.063Z,87.69
2023-05-15T05:03:53.797Z,87.67
2023-05-15T05:06:21.492Z,87.61
2023-05-15T05:08:49.066Z,87.54
2023-05-15T05:11:16.556Z,87.45
2023-05-15T05:13:43.995Z,87.47
2023-05-15T05:16:11.641Z,87.40
2023-05-15T05:18:39.254Z,87.48
2023-05-15T05:21:06.748Z,87.51
2023-05-15T05:23:34.253Z,87.59
2023-05-15T05:26:03.539Z,87.71
2023-05-15T05:28:31.643Z,87.90
2023-05-15T05:30:59.185Z,87.73
2023-05-15T05:33:26.737Z,87.66
2023-05-15T05:35:54.234Z,87.62
2023-05-15T05:38:21.731Z,87.77
2023-05-15T05:40:49.259Z,87.96
2023-05-15T05:43:16.717Z,87.99
2023-05-15T05:45:44.196Z,88.14
2023-05-15T05:48:11.798Z,88.27
2023-05-15T05:50:39.358Z,88.21
2023-05-15T05:53:06.903Z,88.26
2023-05-15T05:55:34.470Z,88.31
2023-05-15T05:58:03.299Z,88.40
2023-05-15T06:00:32.306Z,88.45
2023-05-15T06:03:00.233Z,88.52
2023-05-15T06:05:27.987Z,88.58
2023-05-15T06:07:55.635Z,88.60
2023-05-15T06:10:23.336Z,88.71
2023-05-15T06:12:51.029Z,88.72
2023-05-15T06:15:18.545Z,88.68
2023-05-15T06:17:46.152Z,88.63
2023-05-15T06:20:14.263Z,88.74
2023-05-15T06:22:41.794Z,88.56
2023-05-15T06:25:13.820Z,88.45
2023-05-15T06:27:41.367Z,88.43
2023-05-15T06:30:08.842Z,88.38
2023-05-15T06:32:36.586Z,88.21
2023-05-15T06:35:04.136Z,88.18
2023-05-15T06:37:31.620Z,88.34
2023-05-15T06:39:59.214Z,88.55
2023-05-15T06:42:27.173Z,88.61
2023-05-15T06:44:54.643Z,88.55
2023-05-15T06:47:22.171Z,88.67
2023-05-15T06:49:49.748Z,88.72
2023-05-15T06:52:17.226Z,88.44
2023-05-15T06:54:44.908Z,88.51
2023-05-15T06:57:12.429Z,88.59
2023-05-15T06:59:39.944Z,88.48
2023-05-15T07:02:07.630Z,88.70
2023-05-15T07:04:35.671Z,88.47
2023-05-15T07:07:03.489Z,88.31
2023-05-15T07:09:31.203Z,88.35
2023-05-15T07:11:58.759Z,88.09
2023-05-15T07:14:26.196Z,87.70
2023-05-15T07:16:53.785Z,87.97
2023-05-15T07:19:21.634Z,87.94
2023-05-15T07:21:49.225Z,87.44
2023-05-15T07:24:16.744Z,87.45
2023-05-15T07:26:57.415Z,86.78
2023-05-15T07:29:26.903Z,86.84
2023-05-15T07:31:54.448Z,86.47
2023-05-15T07:34:23.499Z,86.19
2023-05-15T07:36:51.130Z,86.07
2023-05-15T07:39:18.667Z,85.95
2023-05-15T07:41:47.123Z,85.87
2023-05-15T07:44:14.668Z,85.36
2023-05-15T07:46:42.247Z,85.03
2023-05-15T07:49:09.761Z,84.80
2023-05-15T07:51:37.296Z,84.70
2023-05-15T07:54:04.830Z,84.45
2023-05-15T07:56:32.847Z,84.23
2023-05-15T07:59:00.550Z,83.77
2023-05-15T08:01:30.004Z,83.74
2023-05-15T08:03:58.640Z,84.07
2023-05-15T08:06:26.262Z,83.72
2023-05-15T08:08:53.851Z,83.62
2023-05-15T08:11:22.015Z,84.12
2023-05-15T08:13:49.801Z,83.38
2023-05-15T08:16:17.363Z,83.43
2023-05-15T08:18:44.951Z,82.93
2023-05-15T08:21:12.558Z,82.02
2023-05-15T08:23:40.072Z,81.77
2023-05-15T08:26:07.551Z,81.45
2023-05-15T08:28:35.038Z,80.80
2023-05-15T08:31:02.552Z,81.67
2023-05-15T08:33:30.112Z,82.75
2023-05-15T08:35:58.361Z,80.74
2023-05-15T08:38:25.913Z,79.58
2023-05-15T08:40:53.348Z,78.16
2023-05-15T08:43:20.841Z,78.37
2023-05-15T08:45:48.313Z,77.90
2023-05-15T08:48:16.121Z,77.27
2023-05-15T08:50:44.315Z,77.20
2023-05-15T08:53:11.896Z,77.16
2023-05-15T08:55:39.346Z,76.75
2023-05-15T08:58:07.362Z,76.81
2023-05-15T09:00:35.112Z,76.48
2023-05-15T09:03:02.695Z,76.87
2023-05-15T09:05:30.408Z,76.21
2023-05-15T09:07:57.993Z,75.61
2023-05-15T09:10:25.460Z,75.60
2023-05-15T09:12:53.034Z,75.27
2023-05-15T09:15:25.408Z,74.90
2023-05-15T09:17:53.398Z,75.00
2023-05-15T09:20:20.914Z,74.45
2023-05-15T09:22:48.405Z,74.79
2023-05-15T09:25:16.202Z,74.34
2023-05-15T09:27:43.848Z,74.35
2023-05-15T09:30:11.330Z,74.43
2023-05-15T09:32:38.834Z,74.34
2023-05-15T09:35:06.290Z,73.98
2023-05-15T09:37:33.813Z,73.83
2023-05-15T09:40:01.314Z,73.72
2023-05-15T09:42:28.779Z,73.87
2023-05-15T09:44:56.280Z,73.38
2023-05-15T09:47:24.212Z,73.51
2023-05-15T09:49:51.933Z,73.85
2023-05-15T09:52:19.441Z,72.63
2023-05-15T09:54:50.075Z,72.91
2023-05-15T09:57:18.429Z,72.94
2023-05-15T09:59:46.038Z,73.37
2023-05-15T10:02:13.654Z,73.88
2023-05-15T10:04:41.226Z,73.65
2023-05-15T10:07:10.065Z,73.77
2023-05-15T10:09:37.626Z,73.86
2023-05-15T10:12:05.118Z,74.20
2023-05-15T10:14:32.642Z,74.32
2023-05-15T10:17:00.193Z,74.64
2023-05-15T10:19:27.789Z,74.70
2023-05-15T10:21:55.503Z,74.33
2023-05-15T10:24:23.134Z,74.46
2023-05-15T10:26:50.675Z,74.52
2023-05-15T10:29:18.205Z,74.44
2023-05-15T10:31:45.943Z,74.33
2023-05-15T10:34:13.500Z,73.51
2023-05-15T10:36:41.039Z,73.16
2023-05-15T10:39:08.666Z,72.97
2023-05-15T10:41:36.240Z,72.77
2023-05-15T10:44:03.753Z,72.99
2023-05-15T10:46:31.303Z,73.06
2023-05-15T10:48:58.896Z,73.50
2023-05-15T10:51:27.614Z,73.63
2023-05-15T10:53:55.198Z,73.12
2023-05-15T10:56:22.897Z,71.64
2023-05-15T10:58:50.944Z,71.66
2023-05-15T11:01:18.551Z,70.72
2023-05-15T11:03:49.913Z,70.35
2023-05-15T11:06:18.535Z,70.95
2023-05-15T11:08:46.314Z,70.34
2023-05-15T11:11:13.875Z,69.53
2023-05-15T11:13:41.401Z,69.24
2023-05-15T11:16:12.070Z,67.91
2023-05-15T11:18:40.414Z,67.50
2023-05-15T11:21:08.278Z,67.50
2023-05-15T11:23:35.891Z,66.99
2023-05-15T11:26:03.865Z,66.33
2023-05-15T11:28:31.681Z,66.32
2023-05-15T11:30:59.558Z,66.16
2023-05-15T11:33:27.108Z,66.78
2023-05-15T11:35:54.648Z,67.68
2023-05-15T11:38:22.219Z,67.61
2023-05-15T11:40:49.852Z,67.54
2023-05-15T11:43:17.656Z,67.74
2023-05-15T11:45:45.186Z,67.40
2023-05-15T11:48:12.745Z,67.14
2023-05-15T11:50:40.424Z,67.23
2023-05-15T11:53:08.005Z,66.93
2023-05-15T11:55:35.659Z,66.87
2023-05-15T11:58:04.348Z,67.40
2023-05-15T12:00:32.205Z,67.27
2023-05-15T12:02:59.924Z,65.78
2023-05-15T12:05:27.570Z,65.11
2023-05-15T12:07:55.148Z,65.54
2023-05-15T12:10:22.889Z,65.70
2023-05-15T12:12:50.626Z,64.39
2023-05-15T12:15:18.181Z,64.05
2023-05-15T12:17:46.035Z,64.11
2023-05-15T12:20:13.821Z,64.02
2023-05-15T12:22:42.633Z,62.40
2023-05-15T12:25:11.332Z,60.89
2023-05-15T12:27:38.981Z,61.19
2023-05-15T12:30:06.703Z,61.31
2023-05-15T12:32:34.335Z,61.92
2023-05-15T12:35:01.941Z,61.26
2023-05-15T12:37:29.568Z,61.36
2023-05-15T12:39:57.089Z,61.32
2023-05-15T12:42:24.647Z,60.46
2023-05-15T12:44:55.134Z,60.42
2023-05-15T12:47:22.626Z,61.14
2023-05-15T12:49:50.188Z,59.39
2023-05-15T12:52:17.785Z,58.60
2023-05-15T12:54:46.081Z,57.99
2023-05-15T12:57:13.674Z,59.03
2023-05-15T12:59:41.397Z,57.81
2023-05-15T13:02:09.272Z,57.86
2023-05-15T13:04:36.938Z,58.71
2023-05-15T13:07:04.579Z,57.14
2023-05-15T13:09:33.346Z,55.14
2023-05-15T13:12:00.848Z,55.28
2023-05-15T13:14:29.799Z,56.32
2023-05-15T13:16:57.364Z,57.18
2023-05-15T13:19:24.882Z,56.93
2023-05-15T13:21:52.902Z,56.29
2023-05-15T13:24:20.595Z,55.93
2023-05-15T13:26:48.181Z,58.32
2023-05-15T13:29:15.881Z,59.23
2023-05-15T13:31:43.475Z,60.00
2023-05-15T13:34:11.086Z,60.60
2023-05-15T13:36:38.643Z,61.24
2023-05-15T13:39:06.568Z,61.70
2023-05-15T13:41:34.117Z,61.72
2023-05-15T13:44:01.693Z,61.26
2023-05-15T13:46:29.202Z,61.31
2023-05-15T13:48:57.119Z,61.47
2023-05-15T13:51:24.706Z,60.87
2023-05-15T13:53:52.618Z,61.17
2023-05-15T13:56:20.178Z,61.87
2023-05-15T13:58:48.002Z,62.84
2023-05-15T14:01:15.589Z,62.71
2023-05-15T14:03:43.343Z,61.84
2023-05-15T14:06:10.932Z,61.32
2023-05-15T14:08:38.436Z,61.66
2023-05-15T14:11:05.954Z,60.60
2023-05-15T14:13:33.503Z,58.42
2023-05-15T14:16:01.137Z,57.43
2023-05-15T14:18:29.955Z,56.89
2023-05-15T14:20:59.650Z,54.86
2023-05-15T14:23:27.172Z,54.74
2023-05-15T14:25:54.653Z,55.56
2023-05-15T14:28:22.277Z,55.64
2023-05-15T14:30:49.765Z,55.49
2023-05-15T14:33:17.455Z,55.48
2023-05-15T14:35:45.161Z,56.00
2023-05-15T14:38:12.637Z,55.73
2023-05-15T14:40:40.151Z,56.58
2023-05-15T14:43:08.014Z,56.17
2023-05-15T14:45:35.535Z,55.73
2023-05-15T14:48:03.332Z,56.03
2023-05-15T14:50:31.022Z,55.77
2023-05-15T14:52:58.670Z,56.28
2023-05-15T14:55:26.367Z,56.86
2023-05-15T14:57:54.088Z,56.78
2023-05-15T15:00:21.589Z,57.80
2023-05-15T15:02:49.190Z,58.08
2023-05-15T15:05:16.951Z,57.90
2023-05-15T15:07:44.453Z,57.94
2023-05-15T15:10:11.992Z,58.36
2023-05-15T15:12:39.546Z,58.52
2023-05-15T15:15:07.029Z,59.11
2023-05-15T15:17:34.569Z,59.75
2023-05-15T15:20:06.013Z,60.24
2023-05-15T15:22:33.551Z,59.89
2023-05-15T15:25:01.387Z,59.24
2023-05-15T15:27:29.163Z,59.84
2023-05-15T15:29:56.642Z,59.78
2023-05-15T15:32:24.246Z,59.68
2023-05-15T15:34:51.907Z,60.22
2023-05-15T15:37:19.414Z,60.02
2023-05-15T15:39:46.925Z,60.08
2023-05-15T15:42:14.462Z,60.48
2023-05-15T15:44:41.956Z,60.52
2023-05-15T15:47:09.466Z,60.49
2023-05-15T15:49:37.080Z,61.22
2023-05-15T15:52:04.567Z,61.17
2023-05-15T15:54:33.246Z,61.13
2023-05-15T15:57:01.179Z,61.19
2023-05-15T15:59:28.825Z,61.06
2023-05-15T16:01:56.330Z,61.56
2023-05-15T16:04:23.957Z,61.26
2023-05-15T16:06:51.482Z,61.46
2023-05-15T16:09:19.840Z,61.92
2023-05-15T16:11:47.429Z,62.80
2023-05-15T16:14:14.956Z,63.59
2023-05-15T16:16:42.446Z,64.29
2023-05-15T16:19:10.314Z,65.05
2023-05-15T16:21:37.851Z,65.73
2023-05-15T16:24:05.445Z,66.21
2023-05-15T16:26:33.049Z,66.40
2023-05-15T16:29:00.677Z,66.25
2023-05-15T16:31:28.215Z,66.16
2023-05-15T16:33:55.894Z,65.98
2023-05-15T16:36:23.334Z,65.69
2023-05-15T16:38:50.760Z,65.15
2023-05-15T16:41:18.692Z,64.31
2023-05-15T16:43:46.198Z,64.37
2023-05-15T16:46:13.748Z,64.61
2023-05-15T16:48:41.339Z,64.59
2023-05-15T16:51:09.056Z,64.44
2023-05-15T16:53:36.588Z,64.50
2023-05-15T16:56:04.593Z,64.68
2023-05-15T16:58:35.097Z,64.81
2023-05-15T17:01:02.644Z,64.69
2023-05-15T17:03:30.362Z,64.73
2023-05-15T17:05:57.942Z,65.01
2023-05-15T17:08:25.579Z,65.27
2023-05-15T17:10:53.087Z,65.58
2023-05-15T17:13:20.613Z,65.87
2023-05-15T17:15:49.757Z,66.09
2023-05-15T17:18:17.384Z,66.43
2023-05-15T17:20:45.001Z,66.46
2023-05-15T17:23:12.584Z,66.48
2023-05-15T17:26:05.833Z,66.52
2023-05-15T17:28:33.334Z,66.59
2023-05-15T17:31:00.837Z,66.71
2023-05-15T17:33:28.460Z,66.80
2023-05-15T17:35:55.956Z,66.89
2023-05-15T17:38:23.639Z,66.93
2023-05-15T17:40:52.434Z,67.07
2023-05-15T17:43:19.982Z,67.29
2023-05-15T17:45:47.568Z,67.45
2023-05-15T17:48:15.557Z,67.50
2023-05-15T17:50:42.999Z,67.76
2023-05-15T17:53:10.683Z,67.96
2023-05-15T17:55:38.248Z,68.03
2023-05-15T17:58:05.847Z,68.15
2023-05-15T18:00:33.423Z,68.26
2023-05-15T18:03:01.748Z,68.42
2023-05-15T18:05:29.483Z,68.55
2023-05-15T18:07:59.523Z,68.83
2023-05-15T18:10:27.008Z,69.02
2023-05-15T18:12:54.499Z,69.06
2023-05-15T18:15:22.146Z,69.20
2023-05-15T18:17:50.037Z,69.44
2023-05-15T18:20:17.673Z,69.54
2023-05-15T18:22:46.088Z,69.62
2023-05-15T18:25:13.671Z,69.84
2023-05-15T18:27:41.168Z,70.06
2023-05-15T18:30:08.633Z,70.23
2023-05-15T18:32:36.456Z,70.33
2023-05-15T18:35:03.969Z,70.24
2023-05-15T18:37:31.451Z,70.42
2023-05-15T18:39:59.191Z,70.59
2023-05-15T18:42:26.699Z,70.63
2023-05-15T18:44:54.270Z,70.61
2023-05-15T18:47:21.884Z,70.63
2023-05-15T18:49:49.383Z,70.79
2023-05-15T18:52:18.692Z,70.93
2023-05-15T18:54:46.438Z,71.17
2023-05-15T18:57:17.074Z,71.11
2023-05-15T18:59:44.590Z,71.09
2023-05-15T19:02:12.303Z,70.94
2023-05-15T19:04:39.873Z,70.92
2023-05-15T19:07:07.364Z,71.02
2023-05-15T19:09:35.228Z,71.19
2023-05-15T19:12:02.986Z,71.24
2023-05-15T19:14:30.487Z,71.26
2023-05-15T19:16:58.152Z,71.27
2023-05-15T19:19:25.990Z,71.36
2023-05-15T19:21:53.653Z,71.45
2023-05-15T19:24:21.185Z,71.54
2023-05-15T19:26:48.991Z,71.68
2023-05-15T19:29:16.471Z,71.72
2023-05-15T19:31:44.184Z,71.93
2023-05-15T19:34:11.650Z,72.13
2023-05-15T19:36:39.268Z,72.17
2023-05-15T19:39:06.753Z,72.25
2023-05-15T19:41:34.229Z,72.19
2023-05-15T19:44:01.680Z,72.44
2023-05-15T19:46:29.656Z,72.85
2023-05-15T19:48:57.335Z,73.01
2023-05-15T19:51:24.866Z,73.81
2023-05-15T19:53:52.469Z,74.37
2023-05-15T19:56:21.496Z,74.38
2023-05-15T19:58:49.083Z,74.22
2023-05-15T20:01:16.659Z,74.24
2023-05-15T20:03:44.317Z,74.25
2023-05-15T20:06:14.832Z,74.28
2023-05-15T20:08:42.474Z,74.28
2023-05-15T20:11:09.935Z,74.27
2023-05-15T20:13:38.353Z,74.27
2023-05-15T20:16:10.678Z,74.18
2023-05-15T20:18:39.730Z,74.18
2023-05-15T20:21:07.395Z,74.22
2023-05-15T20:23:35.286Z,74.25
2023-05-15T20:26:02.822Z,74.10
2023-05-15T20:28:30.608Z,74.19
2023-05-15T20:30:58.466Z,74.19
2023-05-15T20:33:26.073Z,74.22
2023-05-15T20:35:54.059Z,74.13
2023-05-15T20:38:21.666Z,74.15
2023-05-15T20:40:49.131Z,74.12
2023-05-15T20:43:16.605Z,73.95
2023-05-15T20:45:44.134Z,73.84
2023-05-15T20:48:11.812Z,73.71
2023-05-15T20:50:39.723Z,73.65
2023-05-15T20:53:08.164Z,73.62
2023-05-15T20:55:35.686Z,73.68
2023-05-15T20:58:03.175Z,73.65
2023-05-15T21:00:30.997Z,73.62
2023-05-15T21:02:58.689Z,73.61
2023-05-15T21:05:26.349Z,73.72
2023-05-15T21:07:53.836Z,73.80
2023-05-15T21:10:21.329Z,73.82
2023-05-15T21:12:49.053Z,73.81
2023-05-15T21:15:18.558Z,73.70
2023-05-15T21:17:46.213Z,73.71
2023-05-15T21:20:13.710Z,73.95
2023-05-15T21:22:41.413Z,74.23
2023-05-15T21:25:08.997Z,74.64
2023-05-15T21:27:36.768Z,74.70
2023-05-15T21:30:04.311Z,75.18
2023-05-15T21:32:31.954Z,75.47
2023-05-15T21:34:59.452Z,75.41
2023-05-15T21:37:27.386Z,75.75
2023-05-15T21:39:54.927Z,76.03
2023-05-15T21:42:22.673Z,76.26
2023-05-15T21:44:50.223Z,76.47
2023-05-15T21:47:17.676Z,76.28
2023-05-15T21:49:45.275Z,76.35
2023-05-15T21:52:12.771Z,76.46
2023-05-15T21:54:40.413Z,76.56
2023-05-15T21:57:08.012Z,76.76
2023-05-15T21:59:35.577Z,77.03
2023-05-15T22:02:03.146Z,76.67
2023-05-15T22:04:30.714Z,76.40
2023-05-15T22:06:58.522Z,76.30
2023-05-15T22:09:26.002Z,76.21
2023-05-15T22:11:53.603Z,76.21
2023-05-15T22:14:21.163Z,76.33
2023-05-15T22:16:48.900Z,76.50
2023-05-15T22:19:29.019Z,76.67
2023-05-15T22:22:00.646Z,76.85
2023-05-15T22:24:28.216Z,76.87
2023-05-15T22:26:55.879Z,76.97
2023-05-15T22:29:23.475Z,77.04
2023-05-15T22:31:51.176Z,77.26
2023-05-15T22:34:18.741Z,77.60
2023-05-15T22:36:46.302Z,77.78
2023-05-15T22:39:14.109Z,78.14
2023-05-15T22:41:41.738Z,78.46
2023-05-15T22:44:09.371Z,78.19
2023-05-15T22:46:37.125Z,78.11
2023-05-15T22:49:04.678Z,78.19
2023-05-15T22:51:32.192Z,78.25
2023-05-15T22:53:59.763Z,78.13
2023-05-15T22:56:27.527Z,77.85
2023-05-15T22:58:56.315Z,77.76
2023-05-15T23:01:23.940Z,77.63
2023-05-15T23:03:51.610Z,77.63
2023-05-15T23:06:19.427Z,77.73
2023-05-15T23:08:47.114Z,77.82
2023-05-15T23:11:14.678Z,78.08
2023-05-15T23:13:42.343Z,78.07
2023-05-15T23:16:09.953Z,78.51
2023-05-15T23:18:37.705Z,78.72
2023-05-15T23:21:05.384Z,78.64
2023-05-15T23:23:32.856Z,78.63
2023-05-15T23:26:00.359Z,78.45
2023-05-15T23:28:27.837Z,78.82
2023-05-15T23:30:55.474Z,78.63
2023-05-15T23:33:23.025Z,79.06
2023-05-15T23:35:50.554Z,79.11
2023-05-15T23:38:18.023Z,78.98
2023-05-15T23:40:45.644Z,79.11
2023-05-15T23:43:13.177Z,78.94
2023-05-15T23:45:40.723Z,79.10
2023-05-15T23:48:08.257Z,79.02
2023-05-15T23:50:35.920Z,78.86
2023-05-15T23:53:03.649Z,78.62
2023-05-15T23:55:31.123Z,78.75
2023-05-15T23:57:58.958Z,78.70
